Terminal Aerodrome Forecast
Issued by NWS

Home | Current Version | Previous Version | Text Only | Print | Product List | Glossary On
Versions: 1 2 3 4 5 6 7 8 9 10 11 12 13 14 15 16
153
FTUS43 KJKL 090610 AAB
TAFSJS
TAF AMD
KSJS 090610Z 0906/1006 30007KT P6SM -SN OVC013
     FM091030 27005G17KT P6SM VCSH BKN010 OVC014
     FM091200 28005G15KT P6SM SCT010 BKN015=

USA.gov is the U.S. government's official web portal to all federal, state and local government web resources and services.